Time;durP1;ratioP1;P1;durP2;ratioP2;P2;SDS_P1;SDS_P2;PMS_P1;PMS_P2;Temp;Humidity;BMP_temperature;BMP_pressure;BME280_temperature;BME280_humidity;BME280_pressure;Samples;Min_cycle;Max_cycle;Signal;HPM_P1;HPM_P2
2023/08/04 00:00:22;;;;;;;3.33;0.53;;;;;;;15.69;90.75;98135.09;4943485;28;20254;-59
2023/08/04 00:02:49;;;;;;;2.07;0.70;;;;;;;15.65;91.45;98137.28;4941675;28;20865;-58
2023/08/04 00:05:15;;;;;;;3.93;0.87;;;;;;;15.57;92.32;98140.09;4945861;28;20249;-59
2023/08/04 00:07:44;;;;;;;3.40;1.10;;;;;;;15.52;92.74;98131.97;4943827;28;20339;-59
2023/08/04 00:10:11;;;;;;;1.73;1.07;;;;;;;15.52;93.31;98141.69;4942934;28;20234;-57
2023/08/04 00:12:37;;;;;;;1.63;0.60;;;;;;;15.48;94.48;98142.06;4945383;28;20296;-59
2023/08/04 00:15:06;;;;;;;4.20;0.67;;;;;;;15.44;95.67;98146.09;4941689;28;20861;-57
2023/08/04 00:17:33;;;;;;;2.00;0.97;;;;;;;15.45;96.40;98145.09;4943901;28;20609;-58
2023/08/04 00:19:59;;;;;;;3.47;0.60;;;;;;;15.50;94.94;98141.88;4941383;28;20239;-59
2023/08/04 00:22:26;;;;;;;3.70;0.60;;;;;;;15.51;93.68;98143.50;4945638;28;20253;-58
2023/08/04 00:24:54;;;;;;;2.10;0.60;;;;;;;15.50;95.65;98140.06;4941476;28;20245;-58
2023/08/04 00:27:21;;;;;;;2.33;0.67;;;;;;;15.49;95.93;98140.25;4943031;28;20238;-58
2023/08/04 00:29:47;;;;;;;2.37;0.60;;;;;;;15.43;96.73;98141.84;4941992;28;20222;-59
2023/08/04 00:32:14;;;;;;;0.93;0.50;;;;;;;15.49;96.31;98138.44;4958490;28;20230;-58
2023/08/04 00:34:40;;;;;;;1.27;0.50;;;;;;;15.52;94.70;98136.44;4942001;28;20230;-58
2023/08/04 00:37:07;;;;;;;2.50;0.50;;;;;;;15.57;94.26;98134.81;4939380;28;20242;-59
2023/08/04 00:39:34;;;;;;;1.63;0.70;;;;;;;15.61;95.17;98137.88;4942390;28;20234;-58
2023/08/04 00:42:02;;;;;;;1.73;0.70;;;;;;;15.62;95.54;98126.34;4938418;28;20227;-58
2023/08/04 00:44:28;;;;;;;2.40;0.53;;;;;;;15.64;94.30;98140.13;4957830;28;20242;-58
2023/08/04 00:46:55;;;;;;;2.20;0.60;;;;;;;15.72;91.54;98136.50;4954767;28;20231;-58
2023/08/04 00:49:21;;;;;;;1.50;0.53;;;;;;;15.72;92.10;98141.78;4956823;28;20286;-59
2023/08/04 00:51:49;;;;;;;1.90;0.67;;;;;;;15.70;94.08;98136.72;4936210;28;20811;-58
2023/08/04 00:54:15;;;;;;;3.67;0.90;;;;;;;15.63;95.37;98139.31;4939071;28;20242;-58
2023/08/04 00:56:42;;;;;;;3.07;0.90;;;;;;;15.61;96.66;98143.94;4941960;28;20232;-59
2023/08/04 00:59:10;;;;;;;3.27;0.87;;;;;;;15.54;97.61;98139.69;4938744;28;20239;-58
2023/08/04 01:01:39;;;;;;;3.40;1.00;;;;;;;15.50;97.80;98136.59;4938710;28;20694;-58
2023/08/04 01:04:05;;;;;;;4.47;0.70;;;;;;;15.49;97.91;98133.19;4941376;28;21151;-58
2023/08/04 01:06:41;;;;;;;2.83;0.73;;;;;;;15.53;95.68;98135.41;4943830;28;20762;-58
2023/08/04 01:09:14;;;;;;;3.83;0.80;;;;;;;15.52;97.15;98137.22;4943245;28;20245;-58
2023/08/04 01:11:48;;;;;;;3.10;0.80;;;;;;;15.47;97.21;98129.94;4945320;28;20259;-58
2023/08/04 01:14:16;;;;;;;2.93;0.67;;;;;;;15.47;97.11;98131.72;4948493;28;20225;-58
2023/08/04 01:16:43;;;;;;;5.63;1.03;;;;;;;15.50;96.77;98128.72;4945889;28;20229;-58
2023/08/04 01:19:09;;;;;;;4.20;0.80;;;;;;;15.49;98.48;98135.81;4942774;28;20240;-58
2023/08/04 01:21:41;;;;;;;1.83;0.60;;;;;;;15.52;97.23;98133.78;4947327;28;20229;-58
2023/08/04 01:24:08;;;;;;;4.97;0.80;;;;;;;15.53;97.94;98133.59;4959214;28;20317;-58
2023/08/04 01:26:38;;;;;;;3.07;0.60;;;;;;;15.53;97.46;98135.41;4961749;28;20231;-58
2023/08/04 01:29:07;;;;;;;2.57;0.67;;;;;;;15.64;94.12;98126.97;4959399;28;20230;-58
2023/08/04 01:31:35;;;;;;;3.27;0.67;;;;;;;15.68;91.62;98122.13;4947391;28;20233;-58
2023/08/04 01:34:02;;;;;;;1.67;0.50;;;;;;;15.81;91.54;98121.38;4958115;28;20244;-57
2023/08/04 01:36:29;;;;;;;2.53;0.50;;;;;;;15.78;91.85;98123.41;4946402;28;20646;-61
2023/08/04 01:38:57;;;;;;;3.63;0.60;;;;;;;15.80;90.64;98120.56;4942364;28;20240;-57
2023/08/04 01:41:24;;;;;;;6.33;0.60;;;;;;;15.85;91.69;98117.34;4931305;28;20241;-58
2023/08/04 01:43:50;;;;;;;2.43;0.60;;;;;;;15.82;90.59;98121.16;4942205;28;20234;-58
2023/08/04 01:46:17;;;;;;;2.20;0.50;;;;;;;15.84;90.50;98127.03;4944703;28;20235;-57
2023/08/04 01:48:43;;;;;;;3.67;0.40;;;;;;;15.83;90.43;98114.09;4959309;28;20214;-57
2023/08/04 01:51:10;;;;;;;1.97;0.60;;;;;;;15.86;90.80;98114.50;4940674;28;20232;-58
2023/08/04 01:53:37;;;;;;;2.73;0.77;;;;;;;15.86;90.19;98118.97;4946857;28;20587;-57
2023/08/04 01:56:07;;;;;;;1.87;0.50;;;;;;;15.84;93.03;98116.50;4943773;28;20230;-57
2023/08/04 01:58:33;;;;;;;4.77;0.80;;;;;;;15.75;96.22;98115.88;4955608;28;20231;-57
2023/08/04 02:01:04;;;;;;;1.73;0.70;;;;;;;15.65;96.49;98118.06;4961527;28;20316;-54
2023/08/04 02:03:32;;;;;;;3.63;0.80;;;;;;;15.61;96.31;98114.22;4964352;28;20552;-57
2023/08/04 02:06:05;;;;;;;2.53;0.70;;;;;;;15.57;96.82;98116.41;4955374;28;20226;-57
2023/08/04 02:08:32;;;;;;;4.77;0.80;;;;;;;15.57;94.58;98110.34;4949056;28;20231;-57
2023/08/04 02:10:58;;;;;;;1.40;0.50;;;;;;;15.57;95.21;98113.78;4945119;28;20678;-57
2023/08/04 02:13:26;;;;;;;2.43;0.60;;;;;;;15.58;95.35;98110.13;4949922;28;20230;-57
2023/08/04 02:15:53;;;;;;;3.43;0.50;;;;;;;15.56;95.16;98120.03;4946631;28;20233;-57
2023/08/04 02:18:20;;;;;;;3.40;0.50;;;;;;;15.56;95.34;98116.63;4949653;28;20225;-57
2023/08/04 02:20:46;;;;;;;1.83;0.50;;;;;;;15.56;95.84;98112.16;4947429;28;20241;-58
2023/08/04 02:23:13;;;;;;;8.50;0.60;;;;;;;15.52;96.92;98110.13;4963018;28;20734;-57
2023/08/04 02:25:39;;;;;;;1.53;0.60;;;;;;;15.49;97.91;98106.06;4948522;28;20224;-57
2023/08/04 02:28:07;;;;;;;2.03;0.60;;;;;;;15.42;99.39;98108.66;4947759;28;20230;-56
2023/08/04 02:30:35;;;;;;;3.10;0.80;;;;;;;15.38;100.00;98107.44;4938264;28;20300;-56
2023/08/04 02:33:02;;;;;;;2.47;0.77;;;;;;;15.37;99.95;98103.16;4962937;28;20237;-57
2023/08/04 02:35:28;;;;;;;3.00;1.07;;;;;;;15.34;100.00;98116.72;4948642;28;20237;-57
2023/08/04 02:37:55;;;;;;;3.07;0.70;;;;;;;15.27;100.00;98106.16;4947890;28;20233;-57
2023/08/04 02:40:23;;;;;;;6.67;0.60;;;;;;;15.25;100.00;98110.81;4949205;28;20847;-55
2023/08/04 02:42:49;;;;;;;3.00;0.53;;;;;;;15.27;100.00;98111.44;4944859;28;20237;-58
2023/08/04 02:45:16;;;;;;;2.00;0.70;;;;;;;15.22;100.00;98115.63;4948154;28;20260;-57
2023/08/04 02:47:44;;;;;;;4.17;0.87;;;;;;;15.19;100.00;98115.00;4932560;29;20231;-57
2023/08/04 02:50:10;;;;;;;1.50;0.50;;;;;;;15.20;100.00;98121.88;4944837;28;20229;-58
2023/08/04 02:52:37;;;;;;;2.37;0.67;;;;;;;15.18;100.00;98121.28;4947856;28;20230;-57
2023/08/04 02:55:04;;;;;;;2.40;0.50;;;;;;;15.15;100.00;98121.66;4945942;28;20226;-58
2023/08/04 02:57:33;;;;;;;2.87;0.80;;;;;;;15.12;100.00;98122.03;4949250;28;20227;-56
2023/08/04 02:59:59;;;;;;;3.33;0.70;;;;;;;15.11;100.00;98117.00;4944585;28;20237;-56
2023/08/04 03:05:09;;;;;;;1.30;0.70;;;;;;;15.06;100.00;98135.94;5114547;23;20300;-58
2023/08/04 03:07:35;;;;;;;3.70;0.67;;;;;;;15.07;100.00;98134.16;4938981;28;20234;-57
2023/08/04 03:10:02;;;;;;;2.90;0.70;;;;;;;15.01;100.00;98127.81;4931649;28;20291;-59
2023/08/04 03:12:28;;;;;;;2.70;0.70;;;;;;;15.00;100.00;98137.53;4936658;28;20231;-59
2023/08/04 03:14:55;;;;;;;4.20;0.80;;;;;;;14.99;100.00;98129.84;4935552;28;20740;-59
2023/08/04 03:17:22;;;;;;;5.40;0.90;;;;;;;14.99;100.00;98130.66;4943738;29;20232;-59
2023/08/04 03:19:48;;;;;;;5.50;0.90;;;;;;;14.96;100.00;98128.41;4935014;28;20256;-59
2023/08/04 03:22:21;;;;;;;1.67;1.00;;;;;;;14.95;100.00;98134.66;4937158;28;20238;-59
2023/08/04 03:24:47;;;;;;;2.97;0.80;;;;;;;14.97;100.00;98131.84;4928559;28;20246;-59
2023/08/04 03:27:14;;;;;;;2.57;0.60;;;;;;;14.94;100.00;98140.94;4946439;28;20272;-59
2023/08/04 03:29:41;;;;;;;2.17;0.90;;;;;;;14.86;100.00;98133.19;4940223;28;20229;-60
2023/08/04 03:32:08;;;;;;;5.50;0.90;;;;;;;14.87;100.00;98134.81;5164831;23;20251;-59
2023/08/04 03:34:34;;;;;;;4.80;1.20;;;;;;;14.85;100.00;98136.81;4966399;28;20542;-59
2023/08/04 03:37:01;;;;;;;4.03;0.70;;;;;;;14.82;100.00;98135.41;4963587;28;20285;-59
2023/08/04 03:39:29;;;;;;;3.57;0.60;;;;;;;14.79;100.00;98135.78;4967033;28;20247;-59
2023/08/04 03:41:55;;;;;;;1.10;0.50;;;;;;;14.79;100.00;98141.03;4964878;28;20585;-58
2023/08/04 03:44:22;;;;;;;1.30;0.60;;;;;;;14.78;100.00;98142.03;4966159;28;20220;-59
2023/08/04 03:46:49;;;;;;;1.83;0.97;;;;;;;14.74;100.00;98144.22;4965602;28;20242;-59
2023/08/04 03:49:15;;;;;;;1.87;1.00;;;;;;;14.77;100.00;98153.53;4965272;28;20226;-61
2023/08/04 03:51:42;;;;;;;2.77;0.70;;;;;;;14.77;100.00;98153.53;4964765;28;20240;-59
2023/08/04 03:54:08;;;;;;;2.23;0.60;;;;;;;14.75;100.00;98152.91;4959129;28;20243;-60
2023/08/04 03:56:36;;;;;;;2.77;0.80;;;;;;;14.78;100.00;98156.97;4965803;28;20234;-59
2023/08/04 03:59:03;;;;;;;3.30;0.70;;;;;;;14.77;100.00;98158.81;4964053;28;20232;-58
2023/08/04 04:01:29;;;;;;;2.10;0.50;;;;;;;14.78;100.00;98160.44;4965867;28;20237;-58
2023/08/04 04:03:56;;;;;;;2.83;0.70;;;;;;;14.86;100.00;98155.00;4961736;28;20252;-59
2023/08/04 04:06:23;;;;;;;1.93;0.73;;;;;;;14.84;100.00;98158.84;4966069;28;20704;-59
2023/08/04 04:08:49;;;;;;;2.00;0.50;;;;;;;14.81;100.00;98165.31;4963993;28;20829;-58
2023/08/04 04:11:16;;;;;;;3.27;0.60;;;;;;;14.84;100.00;98159.63;4966126;28;20231;-58
2023/08/04 04:13:44;;;;;;;2.47;0.80;;;;;;;14.91;100.00;98155.25;4967719;28;20685;-57
2023/08/04 04:16:10;;;;;;;2.60;0.60;;;;;;;14.95;100.00;98160.13;4961390;28;20236;-58
2023/08/04 04:18:37;;;;;;;1.53;1.03;;;;;;;14.95;100.00;98165.38;4960382;28;20237;-59
2023/08/04 04:21:05;;;;;;;1.77;0.67;;;;;;;14.99;100.00;98158.75;4962671;28;20319;-59
2023/08/04 04:23:32;;;;;;;3.80;0.73;;;;;;;15.00;100.00;98171.72;4959989;28;20590;-58
2023/08/04 04:25:59;;;;;;;1.57;0.70;;;;;;;14.97;100.00;98172.09;4957790;28;20228;-59
2023/08/04 04:28:25;;;;;;;2.83;0.70;;;;;;;15.02;100.00;98174.97;4966848;28;20240;-59
2023/08/04 04:30:53;;;;;;;2.33;0.60;;;;;;;15.08;100.00;98181.25;4963315;28;20229;-59
2023/08/04 04:33:20;;;;;;;1.27;0.60;;;;;;;15.09;100.00;98182.09;4966555;28;20238;-59
2023/08/04 04:35:49;;;;;;;4.07;0.70;;;;;;;15.08;100.00;98178.63;4961752;28;20228;-59
2023/08/04 04:38:16;;;;;;;1.83;1.13;;;;;;;15.18;100.00;98184.38;4960392;28;20701;-59
2023/08/04 04:40:43;;;;;;;2.07;0.70;;;;;;;15.16;100.00;98183.75;4962795;28;20259;-58
2023/08/04 04:43:09;;;;;;;3.40;0.57;;;;;;;15.16;100.00;98180.31;4958280;28;20236;-59
2023/08/04 04:45:36;;;;;;;1.73;0.60;;;;;;;15.15;100.00;98182.13;4961416;28;20287;-59
2023/08/04 04:48:04;;;;;;;2.80;0.80;;;;;;;15.16;100.00;98177.69;4963160;28;20229;-59
2023/08/04 04:50:31;;;;;;;2.90;0.60;;;;;;;15.18;100.00;98191.44;4965427;28;20218;-59
2023/08/04 04:52:57;;;;;;;2.37;0.93;;;;;;;15.22;100.00;98190.06;4962778;28;20229;-59
2023/08/04 04:55:24;;;;;;;1.73;0.50;;;;;;;15.24;100.00;98198.56;4963476;28;20229;-58
2023/08/04 04:57:50;;;;;;;2.67;0.70;;;;;;;15.25;100.00;98196.75;4960670;28;20226;-59
2023/08/04 05:00:18;;;;;;;1.47;0.70;;;;;;;15.31;100.00;98190.72;4960560;28;20226;-59
2023/08/04 05:02:44;;;;;;;1.93;0.80;;;;;;;15.25;100.00;98199.38;4966454;28;20238;-59
2023/08/04 05:05:12;;;;;;;2.93;0.87;;;;;;;15.22;100.00;98197.94;4958488;28;20253;-59
2023/08/04 05:07:41;;;;;;;1.83;0.80;;;;;;;15.14;100.00;98206.78;4963794;28;20641;-59
2023/08/04 05:10:09;;;;;;;2.17;0.80;;;;;;;15.08;100.00;98212.00;4962663;28;20240;-59
2023/08/04 05:12:35;;;;;;;2.10;0.93;;;;;;;14.90;100.00;98205.38;4965274;28;20233;-59
2023/08/04 05:15:02;;;;;;;4.50;0.87;;;;;;;14.90;100.00;98200.91;4957656;28;20564;-59
2023/08/04 05:17:29;;;;;;;1.57;1.00;;;;;;;14.92;100.00;98198.13;4964829;28;20628;-59
2023/08/04 05:19:56;;;;;;;5.37;1.20;;;;;;;14.93;100.00;98204.19;4961563;28;20241;-59
2023/08/04 05:22:24;;;;;;;1.77;0.67;;;;;;;14.88;100.00;98197.66;4964340;28;20240;-59
2023/08/04 05:24:50;;;;;;;2.23;0.90;;;;;;;14.93;100.00;98205.00;4959696;28;20233;-59
2023/08/04 05:27:17;;;;;;;1.87;1.00;;;;;;;14.98;100.00;98199.16;4966079;28;20593;-59
2023/08/04 05:29:44;;;;;;;2.37;1.00;;;;;;;14.99;100.00;98201.63;4961896;28;20218;-59
2023/08/04 05:32:10;;;;;;;1.93;0.90;;;;;;;15.03;100.00;98197.59;4961050;28;20240;-59
2023/08/04 05:34:37;;;;;;;2.83;0.80;;;;;;;15.03;100.00;98199.41;4963018;28;20236;-59
2023/08/04 05:37:05;;;;;;;3.80;0.70;;;;;;;15.10;100.00;98204.72;4963231;28;20331;-59
2023/08/04 05:39:34;;;;;;;4.17;1.00;;;;;;;15.19;100.00;98209.66;4961036;28;20221;-59
2023/08/04 05:42:01;;;;;;;2.77;0.90;;;;;;;15.21;100.00;98206.84;4961833;28;20245;-60
2023/08/04 05:44:28;;;;;;;4.20;1.20;;;;;;;15.28;100.00;98207.72;4962113;28;20261;-59
2023/08/04 05:46:55;;;;;;;2.03;0.70;;;;;;;15.31;100.00;98209.13;4960972;28;20251;-59
2023/08/04 05:49:22;;;;;;;2.73;0.77;;;;;;;15.45;100.00;98208.22;4963117;28;20236;-59
2023/08/04 05:51:48;;;;;;;3.10;1.00;;;;;;;15.54;100.00;98208.88;4961146;28;20377;-61
2023/08/04 05:54:15;;;;;;;3.53;1.10;;;;;;;15.60;100.00;98202.03;4965452;28;20233;-60
2023/08/04 05:56:43;;;;;;;1.73;1.10;;;;;;;15.70;100.00;98209.56;4965497;28;20236;-60
2023/08/04 05:59:10;;;;;;;2.93;1.07;;;;;;;15.69;100.00;98215.84;4962395;28;20237;-60
2023/08/04 06:01:36;;;;;;;5.00;1.30;;;;;;;15.76;100.00;98214.06;4958749;28;20235;-59
2023/08/04 06:04:03;;;;;;;2.60;1.00;;;;;;;15.79;100.00;98217.13;4957245;28;20571;-60
2023/08/04 06:06:30;;;;;;;1.67;1.10;;;;;;;15.93;100.00;98218.00;4963348;28;20232;-60
2023/08/04 06:08:57;;;;;;;1.80;1.00;;;;;;;16.12;100.00;98225.38;4953524;28;20242;-60
2023/08/04 06:11:24;;;;;;;4.60;1.30;;;;;;;16.26;100.00;98229.69;4958247;28;20225;-58
2023/08/04 06:13:52;;;;;;;2.33;1.00;;;;;;;16.55;100.00;98224.28;4958816;28;21166;-59
2023/08/04 06:16:19;;;;;;;4.07;1.07;;;;;;;16.84;100.00;98225.78;4959387;28;20235;-60
2023/08/04 06:18:45;;;;;;;2.03;0.80;;;;;;;17.12;100.00;98232.69;4959204;28;20243;-59
2023/08/04 06:21:12;;;;;;;1.63;0.77;;;;;;;17.40;100.00;98224.56;4957806;28;20690;-58
2023/08/04 06:23:45;;;;;;;3.77;0.70;;;;;;;17.58;100.00;98225.75;4961957;28;20594;-59
2023/08/04 06:26:11;;;;;;;1.23;0.57;;;;;;;17.89;100.00;98228.72;4959986;28;20305;-59
2023/08/04 06:28:38;;;;;;;0.70;0.50;;;;;;;18.15;99.33;98233.91;4963923;28;20227;-59
2023/08/04 06:31:08;;;;;;;1.80;0.50;;;;;;;18.12;95.33;98231.69;4958924;28;20322;-59
2023/08/04 06:33:34;;;;;;;2.40;0.87;;;;;;;18.08;96.88;98233.13;4960689;28;20229;-59
2023/08/04 06:36:05;;;;;;;1.93;0.90;;;;;;;18.08;97.47;98233.13;4959372;28;20341;-58
2023/08/04 06:38:32;;;;;;;2.13;0.50;;;;;;;18.00;95.42;98230.75;4963132;28;20226;-58
2023/08/04 06:40:59;;;;;;;1.53;0.80;;;;;;;17.98;94.40;98235.41;4958920;28;20243;-58
2023/08/04 06:43:25;;;;;;;2.63;0.80;;;;;;;17.84;98.08;98235.44;4961628;28;20242;-57
2023/08/04 06:45:52;;;;;;;2.43;0.73;;;;;;;17.74;98.08;98236.88;4961335;28;20235;-56
2023/08/04 06:48:21;;;;;;;2.70;0.63;;;;;;;17.68;96.14;98233.25;4964722;28;20254;-58
2023/08/04 06:50:48;;;;;;;2.43;0.80;;;;;;;17.60;100.00;98233.47;4963670;28;20235;-58
2023/08/04 06:53:15;;;;;;;2.37;0.50;;;;;;;17.57;100.00;98239.94;4965540;28;20243;-58
2023/08/04 06:55:41;;;;;;;2.43;0.70;;;;;;;17.73;99.05;98244.00;4965209;28;20237;-59
2023/08/04 06:58:08;;;;;;;3.77;0.80;;;;;;;17.67;96.99;98237.69;4959837;28;20683;-58
2023/08/04 07:00:34;;;;;;;2.93;0.70;;;;;;;17.72;97.68;98239.75;4962093;28;20219;-59
2023/08/04 07:03:01;;;;;;;2.77;0.80;;;;;;;17.76;98.26;98245.41;4974288;28;20237;-60
2023/08/04 07:05:29;;;;;;;1.37;0.80;;;;;;;17.65;98.38;98245.00;4963957;28;20243;-60
2023/08/04 07:07:57;;;;;;;2.60;1.30;;;;;;;17.77;99.72;98249.66;4961966;28;20242;-59
2023/08/04 07:10:24;;;;;;;3.60;0.93;;;;;;;17.72;100.00;98252.94;4965267;28;20239;-60
2023/08/04 07:12:50;;;;;;;3.17;0.90;;;;;;;17.60;100.00;98252.75;4965396;28;20231;-60
2023/08/04 07:15:17;;;;;;;3.23;1.17;;;;;;;17.64;100.00;98251.31;4968381;28;21008;-60
2023/08/04 07:17:44;;;;;;;2.63;0.90;;;;;;;17.65;98.49;98257.41;4965137;28;20250;-59
2023/08/04 07:20:11;;;;;;;1.50;0.80;;;;;;;17.65;98.65;98257.41;4961839;28;20253;-59
2023/08/04 07:22:39;;;;;;;2.00;0.67;;;;;;;17.64;100.00;98253.94;4963748;28;20243;-59
2023/08/04 07:25:06;;;;;;;3.27;0.90;;;;;;;17.81;100.00;98256.97;4964082;28;20603;-59
2023/08/04 07:27:33;;;;;;;2.13;1.13;;;;;;;18.05;99.88;98254.69;4963838;28;20232;-59
2023/08/04 07:30:00;;;;;;;2.93;0.97;;;;;;;18.27;97.33;98257.03;4962213;28;20228;-58
2023/08/04 07:32:26;;;;;;;2.33;0.90;;;;;;;18.09;93.20;98257.72;4962993;28;20237;-58
2023/08/04 07:34:53;;;;;;;2.90;0.90;;;;;;;17.96;95.49;98264.66;4959438;28;20326;-59
2023/08/04 07:37:19;;;;;;;3.97;1.10;;;;;;;17.94;96.67;98257.97;4964673;28;20235;-59
2023/08/04 07:39:47;;;;;;;3.40;1.00;;;;;;;18.05;97.41;98257.31;4965291;28;20228;-59
2023/08/04 07:42:14;;;;;;;3.10;0.80;;;;;;;17.98;97.79;98264.44;4961729;28;20713;-59
2023/08/04 07:44:40;;;;;;;2.13;1.00;;;;;;;17.91;97.43;98261.81;4963322;28;20250;-58
2023/08/04 07:47:07;;;;;;;3.57;1.10;;;;;;;17.79;97.62;98266.94;4943236;28;22545;-60
2023/08/04 07:49:34;;;;;;;1.33;0.83;;;;;;;17.88;96.16;98272.78;4970140;28;20687;-59
2023/08/04 07:52:00;;;;;;;2.93;0.83;;;;;;;17.81;97.37;98264.91;4961363;28;20265;-59
2023/08/04 07:54:27;;;;;;;2.03;0.90;;;;;;;18.17;97.21;98268.06;4963231;28;20217;-59
2023/08/04 07:56:55;;;;;;;1.73;0.70;;;;;;;18.34;95.51;98268.41;4959170;28;20234;-60
2023/08/04 07:59:21;;;;;;;2.10;0.87;;;;;;;18.21;88.35;98268.44;4962384;28;20227;-59
2023/08/04 08:01:48;;;;;;;1.33;0.50;;;;;;;18.10;91.24;98275.19;4959977;28;20741;-60
2023/08/04 08:04:15;;;;;;;1.30;0.63;;;;;;;17.99;94.60;98269.53;4964284;28;20227;-60
2023/08/04 08:06:41;;;;;;;2.50;0.80;;;;;;;18.26;93.95;98274.75;4963474;28;20297;-59
2023/08/04 08:09:08;;;;;;;1.40;0.70;;;;;;;18.26;93.01;98268.63;4961769;28;20296;-60
2023/08/04 08:11:35;;;;;;;1.37;0.60;;;;;;;18.34;90.80;98275.53;4963241;28;20271;-59
2023/08/04 08:14:03;;;;;;;1.60;0.67;;;;;;;18.23;93.01;98272.50;4973437;28;20237;-59
2023/08/04 08:16:29;;;;;;;3.57;0.73;;;;;;;18.22;92.96;98285.91;4963743;28;20235;-60
2023/08/04 08:18:56;;;;;;;2.40;0.73;;;;;;;18.59;93.15;98286.16;4968420;28;20240;-59
2023/08/04 08:21:23;;;;;;;1.93;0.50;;;;;;;18.67;87.89;98291.22;4969025;28;20234;-60
2023/08/04 08:23:49;;;;;;;1.50;0.50;;;;;;;18.81;87.05;98286.66;4963322;28;20230;-59
2023/08/04 08:26:16;;;;;;;1.80;0.50;;;;;;;19.05;86.67;98284.28;4970262;28;20244;-58
2023/08/04 08:28:42;;;;;;;1.77;0.80;;;;;;;19.42;86.35;98287.06;4972163;28;20254;-60
2023/08/04 08:31:10;;;;;;;3.10;0.60;;;;;;;19.15;83.54;98291.75;4959900;28;20240;-60
2023/08/04 08:33:37;;;;;;;3.57;0.63;;;;;;;19.46;83.24;98296.19;4965632;28;20227;-59
2023/08/04 08:36:06;;;;;;;1.77;0.60;;;;;;;19.74;81.77;98297.56;4978218;28;20236;-60
2023/08/04 08:38:33;;;;;;;1.53;0.47;;;;;;;20.01;80.77;98299.97;4966113;28;20335;-58
2023/08/04 08:41:07;;;;;;;3.37;0.80;;;;;;;20.20;81.43;98308.72;4964317;28;20267;-59
2023/08/04 08:43:34;;;;;;;2.50;0.67;;;;;;;19.97;77.71;98305.94;4966981;28;20240;-59
2023/08/04 08:46:06;;;;;;;1.53;0.60;;;;;;;20.49;75.68;98298.38;4959993;28;20286;-59
2023/08/04 08:48:38;;;;;;;0.90;0.50;;;;;;;20.35;77.37;98303.06;4963763;28;20237;-59
2023/08/04 08:51:12;;;;;;;2.97;0.67;;;;;;;20.68;74.42;98298.34;4962695;28;20230;-60
2023/08/04 08:53:39;;;;;;;1.57;0.50;;;;;;;20.97;74.13;98295.94;4965231;28;20244;-59
2023/08/04 08:56:08;;;;;;;1.97;0.60;;;;;;;21.18;71.95;98291.16;4962595;28;20226;-56
2023/08/04 08:58:36;;;;;;;3.13;0.60;;;;;;;21.67;70.58;98285.69;4965952;28;20289;-60
2023/08/04 09:01:06;;;;;;;1.50;0.60;;;;;;;22.01;68.33;98293.81;4961853;28;20274;-59
2023/08/04 09:03:35;;;;;;;1.77;0.60;;;;;;;21.99;68.21;98293.25;4966011;28;20618;-59
2023/08/04 09:06:06;;;;;;;1.40;1.00;;;;;;;21.25;70.99;98286.53;4958396;28;20242;-60
2023/08/04 09:08:32;;;;;;;1.53;0.60;;;;;;;21.70;67.55;98298.50;4966662;28;20238;-60
2023/08/04 09:11:03;;;;;;;1.00;0.50;;;;;;;21.46;68.61;98298.44;4963917;28;20245;-58
2023/08/04 09:13:30;;;;;;;2.43;0.53;;;;;;;21.57;65.88;98298.69;4962798;28;20565;-59
2023/08/04 09:15:59;;;;;;;0.97;0.50;;;;;;;21.43;67.17;98288.28;4962789;28;20767;-60
2023/08/04 09:18:27;;;;;;;2.47;0.50;;;;;;;21.04;68.37;98296.66;4964728;28;20253;-60
2023/08/04 09:21:00;;;;;;;2.47;0.73;;;;;;;21.11;69.63;98291.25;4958751;28;20232;-58
2023/08/04 09:23:28;;;;;;;2.63;0.50;;;;;;;20.87;72.27;98285.06;4961648;28;20588;-59
2023/08/04 09:25:55;;;;;;;2.33;0.77;;;;;;;20.90;70.14;98285.41;4959707;28;20625;-60
2023/08/04 09:28:22;;;;;;;2.43;0.60;;;;;;;21.40;67.59;98288.75;4962582;28;20413;-60
2023/08/04 09:33:41;;;;;;;2.57;0.53;;;;;;;22.19;67.42;98289.41;5060154;23;20362;-60
2023/08/04 09:36:15;;;;;;;1.37;0.50;;;;;;;22.07;64.96;98292.88;4962669;28;20661;-61
2023/08/04 09:38:43;;;;;;;1.92;0.60;;;;;;;21.84;65.67;98293.72;4964391;28;20457;-61
2023/08/04 09:41:11;;;;;;;1.67;0.50;;;;;;;21.79;68.95;98297.06;4957996;28;20235;-61
2023/08/04 09:43:44;;;;;;;1.63;0.40;;;;;;;21.80;65.46;98301.34;4950000;28;20620;-60
2023/08/04 09:46:10;;;;;;;2.33;0.40;;;;;;;21.79;67.27;98305.03;4942654;28;20235;-60
2023/08/04 09:48:37;;;;;;;2.13;0.60;;;;;;;19.98;74.21;98305.72;4946538;28;20225;-60
2023/08/04 09:51:07;;;;;;;0.97;0.50;;;;;;;19.81;79.08;98309.91;4950050;28;20246;-60
2023/08/04 09:53:43;;;;;;;2.40;0.50;;;;;;;19.02;83.11;98309.34;4952467;28;20232;-60
2023/08/04 09:56:10;;;;;;;1.80;0.60;;;;;;;18.80;86.84;98305.38;4939564;28;20323;-61
2023/08/04 09:58:37;;;;;;;1.00;0.40;;;;;;;19.08;87.58;98307.69;4943041;28;20228;-60
2023/08/04 10:01:06;;;;;;;1.57;0.53;;;;;;;18.70;92.44;98311.94;4932580;28;20269;-60
2023/08/04 10:03:34;;;;;;;1.47;0.40;;;;;;;18.62;91.94;98312.19;4943648;28;20703;-60
2023/08/04 10:06:08;;;;;;;1.80;0.40;;;;;;;18.56;91.69;98316.47;4949732;28;20695;-60
2023/08/04 10:08:36;;;;;;;0.60;0.30;;;;;;;18.66;92.87;98312.56;4946335;28;20223;-60
2023/08/04 10:11:08;;;;;;;4.43;0.50;;;;;;;18.84;91.79;98317.16;4931595;28;20347;-61
2023/08/04 10:13:36;;;;;;;5.43;1.00;;;;;;;18.71;94.27;98326.78;4939727;28;20233;-60
2023/08/04 10:16:08;;;;;;;3.27;0.80;;;;;;;18.80;98.14;98323.91;4953885;28;20777;-59
2023/08/04 10:18:49;;;;;;;2.13;0.50;;;;;;;18.63;94.66;98319.09;4948215;28;20284;-60
2023/08/04 10:21:18;;;;;;;1.50;0.53;;;;;;;18.56;95.24;98318.31;4947116;28;20237;-60
2023/08/04 10:23:44;;;;;;;1.00;0.50;;;;;;;18.46;97.40;98313.50;4950744;28;20232;-60
2023/08/04 10:26:13;;;;;;;2.07;0.73;;;;;;;18.31;97.38;98316.38;4947404;28;20235;-60
2023/08/04 10:29:01;;;;;;;2.37;0.60;;;;;;;18.81;95.97;98320.22;4950200;28;20906;-59
2023/08/04 10:31:45;;;;;;;1.10;0.50;;;;;;;18.67;95.51;98325.59;4942700;28;20700;-60
2023/08/04 10:34:20;;;;;;;2.00;0.60;;;;;;;18.74;91.72;98320.25;4946598;28;20257;-60
2023/08/04 10:37:01;;;;;;;2.23;0.60;;;;;;;19.13;93.05;98320.25;4948836;28;20249;-60
2023/08/04 10:39:30;;;;;;;1.20;0.43;;;;;;;19.79;90.30;98320.75;4946221;28;20224;-60
2023/08/04 10:41:59;;;;;;;2.20;0.60;;;;;;;19.99;88.78;98322.44;4950057;28;20244;-60
2023/08/04 10:44:28;;;;;;;0.87;0.47;;;;;;;19.93;80.89;98323.31;4946702;28;20229;-60
2023/08/04 10:47:00;;;;;;;3.50;0.40;;;;;;;20.45;80.17;98325.59;4944730;28;20237;-60
2023/08/04 10:49:26;;;;;;;0.30;0.30;;;;;;;20.86;81.85;98324.03;4945493;28;20266;-60
2023/08/04 10:51:54;;;;;;;1.33;0.40;;;;;;;21.23;78.20;98325.75;4948884;28;20620;-60
2023/08/04 10:54:20;;;;;;;0.90;0.47;;;;;;;21.66;74.32;98323.91;4950226;28;20685;-60
2023/08/04 10:56:50;;;;;;;0.73;0.40;;;;;;;21.83;79.95;98332.75;4946759;28;20226;-60
2023/08/04 10:59:18;;;;;;;1.20;0.40;;;;;;;21.04;77.62;98339.13;4951095;28;20840;-60
2023/08/04 11:01:47;;;;;;;1.97;0.43;;;;;;;21.56;77.16;98345.66;4947983;28;20240;-60
2023/08/04 11:04:14;;;;;;;0.53;0.30;;;;;;;21.76;79.93;98341.91;4949442;28;20606;-60
2023/08/04 11:06:40;;;;;;;2.83;0.50;;;;;;;22.31;74.67;98348.66;4946730;28;20252;-60
2023/08/04 11:09:08;;;;;;;2.37;0.30;;;;;;;22.75;70.29;98342.09;4950346;28;20233;-59
2023/08/04 11:11:35;;;;;;;0.43;0.23;;;;;;;22.68;69.27;98344.88;4953141;28;20294;-59
2023/08/04 11:14:06;;;;;;;1.87;0.40;;;;;;;22.22;74.67;98347.41;4943127;28;20233;-60
2023/08/04 11:16:36;;;;;;;0.80;0.40;;;;;;;22.92;67.75;98345.59;4944426;28;20226;-59
2023/08/04 11:19:04;;;;;;;1.70;0.27;;;;;;;22.45;69.96;98351.09;4944722;28;20240;-60
2023/08/04 11:21:31;;;;;;;0.47;0.37;;;;;;;22.34;71.39;98361.50;4940773;28;20581;-60
2023/08/04 11:23:58;;;;;;;2.40;0.60;;;;;;;22.39;72.21;98355.47;4938053;28;20234;-60
2023/08/04 11:26:25;;;;;;;2.53;0.93;;;;;;;21.83;77.23;98356.69;4942446;28;20245;-60
2023/08/04 11:28:51;;;;;;;4.17;0.60;;;;;;;21.77;74.72;98360.25;4953009;28;20244;-60
2023/08/04 11:31:21;;;;;;;1.03;0.27;;;;;;;21.50;75.63;98362.50;4948726;28;21011;-60
2023/08/04 11:33:52;;;;;;;1.53;0.40;;;;;;;21.05;76.65;98361.13;4952835;28;20260;-60
2023/08/04 11:36:19;;;;;;;1.37;0.50;;;;;;;20.01;82.72;98378.66;4949731;28;20255;-58
2023/08/04 11:38:45;;;;;;;2.87;0.93;;;;;;;19.62;87.14;98368.97;4946801;28;20231;-60